Time;durP1;ratioP1;P1;durP2;ratioP2;P2;SDS_P1;SDS_P2;PMS_P1;PMS_P2;Temp;Humidity;BMP_temperature;BMP_pressure;BME280_temperature;BME280_humidity;BME280_pressure;Samples;Min_cycle;Max_cycle;Signal;HPM_P1;HPM_P2
2022/05/21 00:01:56;;;;;;;8.93;3.80;;;17.50;99.90;;;;;;5029156;28;20049;-66
2022/05/21 00:04:24;;;;;;;8.60;3.95;;;17.50;99.90;;;;;;5027877;28;20064;-66
2022/05/21 00:06:51;;;;;;;7.32;4.25;;;17.40;99.90;;;;;;5029187;28;20045;-66
2022/05/21 00:09:19;;;;;;;5.82;3.10;;;17.40;99.90;;;;;;5028379;28;20061;-66
2022/05/21 00:11:47;;;;;;;5.13;3.92;;;17.40;99.90;;;;;;5029536;28;20064;-65
2022/05/21 00:14:14;;;;;;;8.88;3.92;;;17.40;99.90;;;;;;5028391;28;20056;-66
2022/05/21 00:16:42;;;;;;;6.15;3.22;;;17.40;99.90;;;;;;5027993;28;20045;-67
2022/05/21 00:19:09;;;;;;;7.30;3.53;;;17.30;99.90;;;;;;5028585;28;20127;-67
2022/05/21 00:21:36;;;;;;;7.15;3.30;;;17.30;99.90;;;;;;5027865;28;20703;-66
2022/05/21 00:24:04;;;;;;;6.07;3.08;;;17.30;99.90;;;;;;5020463;28;20064;-65
2022/05/21 00:26:31;;;;;;;6.18;3.20;;;17.30;99.90;;;;;;5028548;28;20116;-67
2022/05/21 00:28:59;;;;;;;6.78;3.50;;;17.20;99.90;;;;;;5028570;28;20402;-66
2022/05/21 00:31:26;;;;;;;5.32;3.20;;;17.30;99.90;;;;;;5027345;28;20060;-66
2022/05/21 00:33:53;;;;;;;6.80;3.30;;;17.20;99.90;;;;;;5028803;28;20465;-66
2022/05/21 00:36:21;;;;;;;6.57;3.30;;;17.30;99.90;;;;;;5028283;28;20136;-66
2022/05/21 00:38:48;;;;;;;9.38;3.20;;;17.30;99.90;;;;;;5028001;28;20557;-67
2022/05/21 00:41:17;;;;;;;6.63;3.28;;;17.30;99.90;;;;;;5040950;28;20519;-66
2022/05/21 00:43:48;;;;;;;6.10;3.05;;;17.30;99.90;;;;;;5030392;28;20543;-66
2022/05/21 00:46:20;;;;;;;4.47;3.00;;;17.40;99.90;;;;;;5032040;28;20041;-66
2022/05/21 00:49:06;;;;;;;;;;;17.30;99.90;;;;;;5028902;28;20042;-66
2022/05/21 00:51:38;;;;;;;6.95;3.10;;;17.30;99.90;;;;;;5024695;28;20339;-66
2022/05/21 00:54:07;;;;;;;6.00;3.55;;;17.20;99.90;;;;;;5040225;28;20046;-66
2022/05/21 00:56:42;;;;;;;7.97;3.97;;;17.10;99.90;;;;;;5028156;28;20177;-66
2022/05/21 01:01:59;;;;;;;7.13;4.50;;;17.00;99.90;;;;;;5023801;28;20046;-67
2022/05/21 01:04:26;;;;;;;7.00;4.00;;;17.00;99.90;;;;;;5027963;28;20041;-66
2022/05/21 01:06:56;;;;;;;9.23;4.10;;;16.90;99.90;;;;;;5027848;28;20140;-66
2022/05/21 01:09:24;;;;;;;7.65;5.00;;;16.80;99.90;;;;;;5026575;28;20052;-65
2022/05/21 01:11:52;;;;;;;9.02;3.95;;;16.60;99.90;;;;;;5026052;28;20042;-65
2022/05/21 01:14:20;;;;;;;7.32;4.07;;;16.50;99.90;;;;;;5028115;28;20037;-66
2022/05/21 01:16:49;;;;;;;6.63;4.40;;;16.40;99.90;;;;;;5027956;28;20042;-66
2022/05/21 01:19:17;;;;;;;5.32;4.05;;;16.30;99.90;;;;;;5028628;28;20373;-66
2022/05/21 01:21:45;;;;;;;7.78;3.97;;;16.20;99.90;;;;;;5028536;28;20044;-66
2022/05/21 01:24:13;;;;;;;7.35;4.55;;;16.10;99.90;;;;;;5028140;28;20083;-65
2022/05/21 01:26:41;;;;;;;10.32;5.20;;;16.00;99.90;;;;;;5027578;28;20056;-66
2022/05/21 01:29:21;;;;;;;8.80;4.70;;;16.00;99.90;;;;;;5027673;28;20096;-65
2022/05/21 01:31:53;;;;;;;8.43;3.92;;;15.90;99.90;;;;;;5027575;28;20056;-66
2022/05/21 01:34:21;;;;;;;5.85;3.97;;;15.80;99.90;;;;;;5028366;28;20049;-66
2022/05/21 01:36:49;;;;;;;6.57;3.95;;;15.80;99.90;;;;;;5014189;28;20036;-65
2022/05/21 01:39:17;;;;;;;6.80;3.72;;;15.80;99.90;;;;;;5027942;28;20543;-64
2022/05/21 01:41:45;;;;;;;7.07;3.75;;;15.70;99.90;;;;;;5027578;28;20040;-65
2022/05/21 01:46:59;;;;;;;7.80;4.10;;;15.50;99.90;;;;;;5027357;28;20056;-64
2022/05/21 01:49:26;;;;;;;7.35;3.85;;;15.40;99.90;;;;;;5027997;28;20045;-64
2022/05/21 01:51:55;;;;;;;5.13;3.20;;;15.20;99.90;;;;;;5027962;28;20049;-65
2022/05/21 01:54:22;;;;;;;10.15;3.85;;;15.20;99.90;;;;;;5027504;28;20038;-65
2022/05/21 01:56:50;;;;;;;10.02;3.97;;;15.10;99.90;;;;;;5026835;28;20049;-66
2022/05/21 01:59:17;;;;;;;7.15;4.32;;;15.00;99.90;;;;;;5032129;28;20041;-65
2022/05/21 02:01:44;;;;;;;7.80;3.75;;;15.00;99.90;;;;;;5035662;28;20072;-65
2022/05/21 02:04:12;;;;;;;5.88;3.80;;;15.00;99.90;;;;;;5039788;28;20037;-66
2022/05/21 02:06:39;;;;;;;7.38;3.88;;;14.90;99.90;;;;;;5026646;28;20071;-66
2022/05/21 02:09:06;;;;;;;6.63;4.57;;;14.80;99.90;;;;;;5035749;28;20054;-66
2022/05/21 02:11:34;;;;;;;7.90;3.78;;;14.70;99.90;;;;;;5027589;28;20058;-65
2022/05/21 02:14:01;;;;;;;7.60;3.88;;;14.60;99.90;;;;;;5028193;28;20507;-66
2022/05/21 02:16:28;;;;;;;7.13;4.07;;;14.60;99.90;;;;;;5026805;28;20041;-65
2022/05/21 02:18:57;;;;;;;6.25;4.22;;;14.50;99.90;;;;;;5024671;28;20095;-65
2022/05/21 02:21:24;;;;;;;6.15;4.38;;;14.40;99.90;;;;;;5026626;28;20044;-65
2022/05/21 02:23:51;;;;;;;6.40;4.43;;;14.40;99.90;;;;;;5026283;28;20515;-66
2022/05/21 02:26:19;;;;;;;7.15;4.40;;;14.40;99.90;;;;;;5028223;28;20059;-65
2022/05/21 02:28:46;;;;;;;8.57;4.30;;;14.40;99.90;;;;;;5028631;28;20049;-65
2022/05/21 02:31:14;;;;;;;8.35;4.28;;;14.40;99.90;;;;;;5029271;28;20051;-67
2022/05/21 02:33:41;;;;;;;10.98;4.90;;;14.40;99.90;;;;;;5028645;28;20119;-65
2022/05/21 02:36:09;;;;;;;6.95;4.03;;;14.30;99.90;;;;;;5027450;28;20042;-65
2022/05/21 02:41:23;;;;;;;8.13;4.38;;;14.30;99.90;;;;;;5029335;28;20042;-65
2022/05/21 02:43:51;;;;;;;6.68;4.75;;;14.30;99.90;;;;;;5019659;28;20049;-65
2022/05/21 02:46:18;;;;;;;6.03;4.32;;;14.30;99.90;;;;;;5012948;28;20441;-65
2022/05/21 02:48:46;;;;;;;5.47;3.95;;;14.20;99.90;;;;;;5020800;28;20052;-65
2022/05/21 02:51:13;;;;;;;6.93;4.60;;;14.20;99.90;;;;;;5027464;28;20037;-65
2022/05/21 02:53:40;;;;;;;6.63;4.50;;;14.20;99.90;;;;;;5031563;28;20576;-65
2022/05/21 02:56:11;;;;;;;9.40;4.15;;;14.20;99.90;;;;;;5031695;28;20843;-64
2022/05/21 02:58:38;;;;;;;8.27;4.43;;;14.10;99.90;;;;;;5033090;28;20057;-66
2022/05/21 03:01:05;;;;;;;7.45;3.90;;;14.10;99.90;;;;;;5017964;28;20060;-65
2022/05/21 03:03:33;;;;;;;5.28;3.60;;;14.00;99.90;;;;;;5043497;28;20499;-64
2022/05/21 03:06:00;;;;;;;7.90;3.83;;;13.90;99.90;;;;;;5031361;28;20454;-65
2022/05/21 03:11:13;;;;;;;8.15;3.70;;;13.90;99.90;;;;;;5031228;28;20049;-65
2022/05/21 03:13:41;;;;;;;6.55;3.80;;;13.90;99.90;;;;;;5024737;28;20053;-65
2022/05/21 03:16:08;;;;;;;5.18;3.80;;;13.80;99.90;;;;;;5027228;28;20038;-64
2022/05/21 03:18:37;;;;;;;5.22;3.58;;;13.70;99.90;;;;;;5040961;28;20033;-66
2022/05/21 03:21:04;;;;;;;6.97;4.38;;;13.60;99.90;;;;;;5036589;28;20112;-66
2022/05/21 03:23:31;;;;;;;6.43;3.85;;;13.60;99.90;;;;;;5042038;28;20041;-66
2022/05/21 03:25:59;;;;;;;6.05;4.10;;;13.60;99.90;;;;;;5040851;28;20057;-66
2022/05/21 03:28:27;;;;;;;6.85;4.32;;;13.50;99.90;;;;;;5040713;28;20075;-65
2022/05/21 03:30:55;;;;;;;7.10;4.40;;;13.50;99.90;;;;;;5037449;28;20072;-65
2022/05/21 03:33:22;;;;;;;9.45;4.95;;;13.40;99.90;;;;;;5038771;28;20065;-66
2022/05/21 03:35:49;;;;;;;6.28;4.45;;;13.30;99.90;;;;;;5045118;28;20037;-65
2022/05/21 03:38:19;;;;;;;6.35;4.30;;;13.30;99.90;;;;;;5038592;28;20420;-66
2022/05/21 03:40:47;;;;;;;9.50;5.05;;;13.30;99.90;;;;;;5042796;28;20045;-66
2022/05/21 03:43:14;;;;;;;5.57;4.00;;;13.30;99.90;;;;;;5041422;28;20560;-66
2022/05/21 03:45:42;;;;;;;9.75;4.60;;;13.30;99.90;;;;;;5035211;28;20049;-66
2022/05/21 03:48:09;;;;;;;6.55;4.30;;;13.20;99.90;;;;;;5041769;28;20098;-66
2022/05/21 03:50:37;;;;;;;9.52;4.82;;;13.30;99.90;;;;;;5037387;28;20048;-65
2022/05/21 03:53:05;;;;;;;7.30;4.35;;;13.30;99.90;;;;;;5040525;28;20151;-65
2022/05/21 03:55:32;;;;;;;8.45;4.65;;;13.20;99.90;;;;;;5035612;28;20106;-65
2022/05/21 03:58:00;;;;;;;7.28;3.90;;;13.20;99.90;;;;;;5038168;28;20046;-65
2022/05/21 04:00:27;;;;;;;9.27;4.40;;;13.20;99.90;;;;;;5044868;28;20533;-66
2022/05/21 04:02:57;;;;;;;10.95;4.55;;;13.20;99.90;;;;;;5022777;28;20049;-66
2022/05/21 04:05:25;;;;;;;8.93;4.68;;;13.30;99.90;;;;;;5028479;28;20341;-65
2022/05/21 04:07:52;;;;;;;5.70;4.15;;;13.20;99.90;;;;;;5045883;28;20044;-66
2022/05/21 04:10:20;;;;;;;7.35;4.80;;;13.20;99.90;;;;;;5040249;28;20526;-66
2022/05/21 04:12:47;;;;;;;8.93;4.60;;;13.20;99.90;;;;;;5049540;28;20522;-65
2022/05/21 04:15:15;;;;;;;6.43;4.47;;;13.10;99.90;;;;;;5047459;28;20125;-64
2022/05/21 04:17:42;;;;;;;7.82;5.05;;;13.10;99.90;;;;;;5029716;28;20045;-65
2022/05/21 04:20:12;;;;;;;6.20;4.38;;;13.20;99.90;;;;;;5027466;28;20033;-65
2022/05/21 04:22:40;;;;;;;7.55;5.13;;;13.20;99.90;;;;;;5030181;28;20483;-65
2022/05/21 04:25:08;;;;;;;9.45;4.53;;;13.20;99.90;;;;;;5034819;28;20053;-66
2022/05/21 04:27:36;;;;;;;9.18;4.85;;;13.10;99.90;;;;;;5029900;28;20514;-65
2022/05/21 04:30:05;;;;;;;8.18;4.70;;;13.20;99.90;;;;;;5034772;28;20097;-66
2022/05/21 04:32:33;;;;;;;8.18;4.97;;;13.30;99.90;;;;;;5041490;28;20099;-66
2022/05/21 04:35:01;;;;;;;8.35;4.97;;;13.30;99.90;;;;;;5035559;28;20125;-66
2022/05/21 04:37:28;;;;;;;8.02;5.20;;;13.30;99.90;;;;;;5039343;28;20136;-65
2022/05/21 04:39:55;;;;;;;9.45;4.97;;;13.20;99.90;;;;;;5036400;28;20058;-66
2022/05/21 04:42:23;;;;;;;6.60;5.05;;;13.20;99.90;;;;;;5021979;28;20037;-65
2022/05/21 04:44:50;;;;;;;8.43;4.85;;;13.30;99.90;;;;;;5022754;28;20041;-66
2022/05/21 04:47:18;;;;;;;6.82;4.57;;;13.30;99.90;;;;;;5025715;28;20439;-66
2022/05/21 04:49:45;;;;;;;7.40;4.90;;;13.30;99.90;;;;;;5033841;28;20403;-66
2022/05/21 04:52:12;;;;;;;7.65;4.80;;;13.40;99.90;;;;;;5026912;28;20045;-66
2022/05/21 04:54:39;;;;;;;8.82;4.88;;;13.40;99.90;;;;;;5035447;28;20125;-66
2022/05/21 04:57:07;;;;;;;10.07;5.50;;;13.40;99.90;;;;;;5030879;28;20041;-66
2022/05/21 04:59:34;;;;;;;7.22;4.55;;;13.40;99.90;;;;;;5043293;28;20049;-66
2022/05/21 05:02:02;;;;;;;6.78;4.45;;;13.40;99.90;;;;;;5033134;28;20042;-65
2022/05/21 05:04:29;;;;;;;7.38;4.78;;;13.40;99.90;;;;;;5029302;28;20042;-66
2022/05/21 05:06:56;;;;;;;7.13;4.57;;;13.50;99.90;;;;;;5027858;28;20041;-66
2022/05/21 05:09:24;;;;;;;8.65;4.60;;;13.60;99.90;;;;;;5034526;28;20049;-66
2022/05/21 05:11:52;;;;;;;6.65;4.50;;;13.50;99.90;;;;;;5030995;28;20038;-65
2022/05/21 05:14:19;;;;;;;8.57;4.32;;;13.50;99.90;;;;;;5032118;28;20041;-65
2022/05/21 05:16:47;;;;;;;5.40;4.00;;;13.50;99.90;;;;;;5029887;28;20389;-66
2022/05/21 05:19:17;;;;;;;10.70;4.72;;;13.60;99.90;;;;;;5031869;28;20081;-66
2022/05/21 05:21:45;;;;;;;7.60;4.63;;;13.60;99.90;;;;;;5021263;28;20040;-66
2022/05/21 05:24:12;;;;;;;7.30;4.30;;;13.60;99.90;;;;;;5033673;28;20041;-66
2022/05/21 05:26:39;;;;;;;7.43;4.60;;;13.50;99.90;;;;;;5022391;28;20042;-65
2022/05/21 05:29:06;;;;;;;6.90;5.07;;;13.50;99.90;;;;;;5023797;28;20420;-65
2022/05/21 05:31:34;;;;;;;6.45;4.47;;;13.60;99.90;;;;;;5024484;28;20059;-66
2022/05/21 05:34:01;;;;;;;8.10;4.28;;;13.60;99.90;;;;;;5028463;28;20056;-66
2022/05/21 05:36:28;;;;;;;7.05;4.30;;;13.70;99.90;;;;;;5041765;28;20376;-66
2022/05/21 05:38:59;;;;;;;6.97;4.60;;;13.70;99.90;;;;;;5037266;28;20041;-66
2022/05/21 05:41:29;;;;;;;6.20;4.22;;;13.70;99.90;;;;;;5045540;28;20366;-65
2022/05/21 05:43:57;;;;;;;8.43;4.28;;;13.80;99.90;;;;;;5032021;28;20045;-66
2022/05/21 05:46:25;;;;;;;6.97;4.57;;;13.80;99.90;;;;;;5045290;28;20047;-66
2022/05/21 05:48:52;;;;;;;5.63;4.15;;;13.90;99.90;;;;;;5044856;28;20037;-66
2022/05/21 05:51:20;;;;;;;8.63;3.95;;;13.80;99.90;;;;;;5029509;28;20454;-67
2022/05/21 05:53:47;;;;;;;7.43;3.90;;;14.00;99.90;;;;;;5028734;28;20068;-65
2022/05/21 05:56:15;;;;;;;6.45;3.80;;;14.00;99.90;;;;;;5032812;28;20049;-67
2022/05/21 06:01:30;;;;;;;6.90;3.58;;;14.30;99.90;;;;;;5037537;28;20532;-66
2022/05/21 06:03:57;;;;;;;6.22;3.58;;;14.40;99.90;;;;;;5029011;28;20050;-66
2022/05/21 06:06:24;;;;;;;7.45;4.10;;;14.40;99.90;;;;;;5029193;28;20564;-66
2022/05/21 06:08:52;;;;;;;6.05;3.90;;;14.50;99.90;;;;;;5033883;28;20202;-66
2022/05/21 06:11:20;;;;;;;7.93;3.80;;;14.50;99.90;;;;;;5016151;28;20125;-67
2022/05/21 06:13:47;;;;;;;6.15;3.35;;;14.60;99.90;;;;;;5026785;28;20057;-64
2022/05/21 06:16:15;;;;;;;7.05;3.17;;;14.60;99.90;;;;;;5029216;28;20042;-67
2022/05/21 06:18:43;;;;;;;6.60;3.35;;;14.70;99.90;;;;;;5031229;28;20049;-66
2022/05/21 06:21:11;;;;;;;6.22;3.40;;;14.80;99.90;;;;;;5032699;28;20122;-65
2022/05/21 06:23:39;;;;;;;6.28;2.67;;;14.80;99.90;;;;;;5032265;28;20167;-67
2022/05/21 06:26:06;;;;;;;4.20;2.50;;;14.80;99.90;;;;;;5032088;28;20424;-65
2022/05/21 06:28:33;;;;;;;4.70;2.80;;;15.00;99.90;;;;;;5032528;28;20421;-66
2022/05/21 06:31:00;;;;;;;4.45;2.42;;;14.90;99.90;;;;;;5032020;28;20049;-66
2022/05/21 06:33:30;;;;;;;4.70;2.40;;;15.10;99.90;;;;;;5031319;28;20073;-66
2022/05/21 06:36:17;;;;;;;5.18;2.60;;;15.10;99.90;;;;;;5033396;28;20065;-66
2022/05/21 06:38:44;;;;;;;6.97;2.42;;;15.10;99.90;;;;;;5028591;28;20452;-65
2022/05/21 06:41:12;;;;;;;4.70;2.33;;;15.00;99.90;;;;;;5033251;28;20041;-67
2022/05/21 06:43:43;;;;;;;4.97;2.38;;;15.10;99.90;;;;;;5029853;28;20088;-67
2022/05/21 06:46:11;;;;;;;5.90;2.40;;;15.10;99.90;;;;;;5030948;28;20049;-66
2022/05/21 06:48:39;;;;;;;5.93;2.25;;;15.20;99.90;;;;;;5036592;28;20041;-66
2022/05/21 06:51:06;;;;;;;5.45;2.50;;;15.30;99.90;;;;;;5050814;28;20445;-66
2022/05/21 06:53:35;;;;;;;5.22;2.38;;;15.40;99.90;;;;;;5031363;28;20385;-65
2022/05/21 06:56:11;;;;;;;4.72;2.75;;;15.50;99.90;;;;;;5027370;28;20064;-64
2022/05/21 06:58:39;;;;;;;4.88;2.47;;;15.60;99.90;;;;;;5039160;28;20037;-65
2022/05/21 07:01:07;;;;;;;4.93;2.50;;;15.70;99.90;;;;;;5039614;28;20052;-66
2022/05/21 07:03:35;;;;;;;5.00;2.47;;;15.70;99.90;;;;;;5040851;28;20048;-66
2022/05/21 07:09:04;;;;;;;5.57;2.72;;;16.20;99.90;;;;;;4996784;28;20046;-67
2022/05/21 07:11:32;;;;;;;3.45;2.17;;;16.30;99.90;;;;;;5009717;28;20057;-66
2022/05/21 07:14:00;;;;;;;4.75;2.30;;;16.30;99.90;;;;;;5008473;28;20082;-65
2022/05/21 07:16:30;;;;;;;4.13;2.40;;;16.30;99.90;;;;;;5008120;28;20038;-66
2022/05/21 07:18:58;;;;;;;7.85;3.00;;;16.50;99.90;;;;;;5007208;28;20739;-66
2022/05/21 07:21:25;;;;;;;4.88;2.33;;;16.40;99.90;;;;;;5007728;28;20535;-66
2022/05/21 07:23:52;;;;;;;4.65;2.35;;;16.30;99.90;;;;;;5007028;28;20444;-65
2022/05/21 07:26:20;;;;;;;4.70;2.20;;;16.40;99.90;;;;;;4994239;28;20053;-64
2022/05/21 07:28:47;;;;;;;5.18;2.78;;;16.50;99.90;;;;;;5008211;28;20061;-65
2022/05/21 07:31:15;;;;;;;4.45;2.33;;;16.20;99.90;;;;;;5007950;28;20073;-66
2022/05/21 07:33:43;;;;;;;6.03;2.70;;;16.40;99.90;;;;;;5006786;28;20049;-66
2022/05/21 07:36:11;;;;;;;5.35;2.58;;;16.50;99.90;;;;;;5000137;28;20458;-65
2022/05/21 07:38:38;;;;;;;5.13;2.60;;;16.50;99.90;;;;;;5007764;28;20532;-65
2022/05/21 07:41:06;;;;;;;3.58;2.30;;;16.30;99.90;;;;;;5007300;28;20503;-65
2022/05/21 07:43:34;;;;;;;4.50;2.15;;;16.30;99.90;;;;;;5007555;28;20052;-66
2022/05/21 07:46:01;;;;;;;5.25;2.17;;;16.40;99.90;;;;;;5030269;28;20056;-64
2022/05/21 07:48:29;;;;;;;4.30;2.13;;;16.40;99.90;;;;;;5030020;28;20450;-65
2022/05/21 07:50:59;;;;;;;6.35;2.63;;;16.50;99.90;;;;;;5029960;28;20073;-66
2022/05/21 07:53:31;;;;;;;5.07;2.65;;;16.30;99.90;;;;;;5023878;28;20037;-66
2022/05/21 07:55:59;;;;;;;5.53;2.65;;;16.10;99.90;;;;;;5028797;28;20551;-66
2022/05/21 07:58:29;;;;;;;5.05;2.03;;;16.10;99.90;;;;;;5031472;28;20045;-66
2022/05/21 08:00:56;;;;;;;5.47;2.30;;;16.00;99.90;;;;;;5025008;28;20569;-65
2022/05/21 08:03:24;;;;;;;5.28;2.55;;;16.00;99.90;;;;;;5020710;28;20425;-67
2022/05/21 08:05:53;;;;;;;5.07;2.47;;;16.10;99.90;;;;;;5017748;28;20633;-66
2022/05/21 08:08:21;;;;;;;5.60;2.80;;;16.10;99.90;;;;;;5030842;28;20511;-65
2022/05/21 08:10:49;;;;;;;7.90;2.83;;;16.10;99.90;;;;;;5030217;28;20054;-65
2022/05/21 08:13:17;;;;;;;5.38;2.58;;;16.40;99.90;;;;;;5028730;28;20133;-65
2022/05/21 08:15:44;;;;;;;6.95;2.55;;;16.60;99.90;;;;;;5028258;28;20033;-65
2022/05/21 08:18:12;;;;;;;5.85;2.50;;;16.60;99.90;;;;;;5032920;28;20480;-65
2022/05/21 08:20:40;;;;;;;7.07;2.60;;;16.70;99.90;;;;;;5018023;28;20575;-65
2022/05/21 08:28:47;;;;;;;5.18;1.83;;;16.30;99.90;;;;;;5021517;28;20099;-66
2022/05/21 08:31:15;;;;;;;4.45;2.00;;;16.20;99.90;;;;;;5030636;28;20049;-65
2022/05/21 08:33:42;;;;;;;3.55;1.85;;;16.30;99.90;;;;;;5024090;28;20099;-64
2022/05/21 08:36:10;;;;;;;3.25;1.70;;;16.40;99.90;;;;;;5030724;28;20053;-65
2022/05/21 08:38:44;;;;;;;3.10;1.55;;;16.50;99.90;;;;;;5021996;28;20052;-66
2022/05/21 08:41:22;;;;;;;4.28;2.03;;;16.70;99.90;;;;;;5030454;28;20441;-66
2022/05/21 08:43:55;;;;;;;3.58;1.75;;;17.10;99.90;;;;;;5029955;28;20502;-65
2022/05/21 08:46:43;;;;;;;3.80;2.00;;;17.20;99.90;;;;;;5029776;28;20476;-66
2022/05/21 08:49:33;;;;;;;3.97;1.90;;;17.40;99.90;;;;;;5034016;28;20472;-66
2022/05/21 08:52:34;;;;;;;3.80;2.00;;;17.30;99.90;;;;;;5025288;28;20356;-66
2022/05/21 08:55:05;;;;;;;4.72;1.98;;;17.20;99.90;;;;;;5025034;28;20037;-64
2022/05/21 08:57:47;;;;;;;7.05;1.90;;;17.20;99.90;;;;;;5029708;28;20088;-67
2022/05/21 09:00:22;;;;;;;4.72;2.25;;;17.50;99.90;;;;;;5042357;28;20540;-66
2022/05/21 09:02:50;;;;;;;4.05;2.40;;;17.30;99.90;;;;;;5015695;28;20526;-65
2022/05/21 09:05:20;;;;;;;6.82;2.58;;;17.30;99.90;;;;;;5019388;28;20469;-65
2022/05/21 09:08:20;;;;;;;6.47;2.23;;;17.40;99.90;;;;;;5022865;28;20133;-65
2022/05/21 09:11:15;;;;;;;9.43;2.78;;;17.80;99.90;;;;;;5038379;28;20382;-66
2022/05/21 09:13:54;;;;;;;6.38;2.30;;;17.90;99.90;;;;;;5020574;28;20128;-65
2022/05/21 09:19:09;;;;;;;4.88;2.75;;;18.10;99.90;;;;;;5033680;28;20511;-66
2022/05/21 09:21:47;;;;;;;4.95;2.30;;;18.20;99.90;;;;;;5031066;28;20055;-66
2022/05/21 09:25:01;;;;;;;4.05;2.45;;;18.10;99.90;;;;;;5029356;28;20722;-67
2022/05/21 09:27:35;;;;;;;3.90;2.40;;;18.00;99.90;;;;;;5022260;28;20132;-66
2022/05/21 09:30:20;;;;;;;3.97;2.50;;;18.00;99.90;;;;;;5022889;28;20369;-66
2022/05/21 09:32:52;;;;;;;3.85;2.15;;;17.90;99.90;;;;;;5028412;28;20056;-66
2022/05/21 09:35:23;;;;;;;3.65;2.08;;;18.00;99.90;;;;;;5026912;28;20220;-66
2022/05/21 09:37:51;;;;;;;5.88;2.03;;;17.90;99.90;;;;;;5029670;28;20042;-66
2022/05/21 09:40:34;;;;;;;5.72;1.90;;;18.00;99.90;;;;;;5030766;28;20469;-66
2022/05/21 09:46:26;;;;;;;3.35;1.55;;;18.30;99.90;;;;;;5029518;28;20473;-65
2022/05/21 09:49:20;;;;;;;3.78;1.80;;;18.30;99.90;;;;;;5031404;28;20554;-65
2022/05/21 09:51:59;;;;;;;3.65;1.63;;;18.70;99.90;;;;;;5028182;28;20041;-65
2022/05/21 09:54:35;;;;;;;3.35;1.63;;;18.60;99.90;;;;;;5030091;28;20420;-66
2022/05/21 09:57:03;;;;;;;3.40;1.45;;;18.50;99.90;;;;;;5026750;28;20037;-66
2022/05/21 09:59:33;;;;;;;3.47;1.92;;;18.40;99.90;;;;;;5032502;28;20125;-66
2022/05/21 10:02:15;;;;;;;2.85;1.65;;;18.50;99.90;;;;;;5027384;28;20060;-66
2022/05/21 10:04:51;;;;;;;3.92;1.75;;;18.50;99.90;;;;;;5030627;28;20215;-67
2022/05/21 10:13:20;;;;;;;5.78;1.67;;;19.00;99.90;;;;;;5031928;28;20163;-67
2022/05/21 10:16:21;;;;;;;4.10;1.70;;;19.40;99.90;;;;;;5023743;28;20430;-66
2022/05/21 10:19:09;;;;;;;2.65;1.70;;;19.40;99.90;;;;;;5032906;28;20094;-67
2022/05/21 10:21:39;;;;;;;4.13;2.10;;;19.20;99.90;;;;;;5033759;28;20518;-66
2022/05/21 10:24:13;;;;;;;3.08;1.38;;;19.30;99.90;;;;;;5025820;28;20331;-67
2022/05/21 10:26:55;;;;;;;4.82;1.50;;;19.30;99.90;;;;;;5028151;28;20103;-66
2022/05/21 10:29:40;;;;;;;2.67;1.20;;;19.30;99.90;;;;;;5037818;28;20049;-67
2022/05/21 10:33:01;;;;;;;2.83;1.48;;;19.30;99.90;;;;;;5015834;28;20044;-65
2022/05/21 10:35:50;;;;;;;2.53;1.02;;;19.40;99.90;;;;;;4999792;28;20214;-65
2022/05/21 10:38:35;;;;;;;2.42;1.10;;;19.40;99.90;;;;;;5023332;28;20087;-65
2022/05/21 10:41:23;;;;;;;3.17;1.20;;;19.40;99.90;;;;;;5024020;28;20429;-67
2022/05/21 10:44:13;;;;;;;3.15;1.20;;;19.50;99.90;;;;;;5027396;28;20570;-66
2022/05/21 10:47:09;;;;;;;4.38;1.20;;;19.60;99.90;;;;;;5028520;28;20125;-67
2022/05/21 10:50:16;;;;;;;3.00;1.05;;;19.70;99.90;;;;;;5030936;28;20144;-65
2022/05/21 10:53:20;;;;;;;6.60;1.60;;;19.90;99.90;;;;;;5027986;28;20491;-66
2022/05/21 10:56:01;;;;;;;3.58;1.20;;;19.60;99.90;;;;;;5018413;28;20056;-67
2022/05/21 10:58:36;;;;;;;4.25;1.48;;;19.70;99.90;;;;;;5017392;28;20068;-67
2022/05/21 11:01:14;;;;;;;3.67;1.30;;;19.40;99.90;;;;;;5012269;28;20072;-66
2022/05/21 11:04:15;;;;;;;2.38;1.08;;;19.40;99.90;;;;;;5027639;28;20560;-66
2022/05/21 11:07:17;;;;;;;2.95;1.20;;;19.30;99.90;;;;;;4999340;28;20054;-67
2022/05/21 11:10:18;;;;;;;4.43;1.17;;;19.60;99.90;;;;;;5018179;28;20196;-66
2022/05/21 11:12:53;;;;;;;3.10;1.42;;;19.90;99.90;;;;;;5039381;28;20148;-65
2022/05/21 11:15:56;;;;;;;2.92;1.20;;;20.40;99.90;;;;;;5036019;28;20047;-66
2022/05/21 11:18:45;;;;;;;3.35;1.20;;;20.50;99.90;;;;;;5028506;28;20056;-67
2022/05/21 11:21:33;;;;;;;4.22;1.20;;;20.50;99.90;;;;;;5036774;28;20045;-66
2022/05/21 11:24:05;;;;;;;3.47;1.38;;;20.60;99.90;;;;;;5025542;28;20041;-67
2022/05/21 11:26:44;;;;;;;2.97;1.25;;;20.50;99.90;;;;;;5031676;28;20452;-66
2022/05/21 11:29:22;;;;;;;5.97;1.77;;;20.70;99.90;;;;;;5028205;28;20040;-67
2022/05/21 11:37:37;;;;;;;5.50;1.70;;;20.70;99.90;;;;;;5032214;28;20643;-67
2022/05/21 11:40:08;;;;;;;4.53;1.60;;;20.90;99.90;;;;;;5037099;28;20083;-67
2022/05/21 11:42:37;;;;;;;4.85;1.63;;;21.30;99.90;;;;;;5027219;28;20057;-67
2022/05/21 11:45:25;;;;;;;4.55;1.90;;;21.30;99.90;;;;;;5031448;28;20592;-68
2022/05/21 11:48:14;;;;;;;4.32;1.58;;;20.80;99.90;;;;;;5035966;28;20039;-67
2022/05/21 11:50:42;;;;;;;3.72;1.60;;;20.90;99.90;;;;;;5036835;28;20128;-67
2022/05/21 11:53:36;;;;;;;3.88;1.80;;;21.50;99.90;;;;;;5025183;28;20504;-67
2022/05/21 11:56:08;;;;;;;3.15;1.63;;;21.50;99.90;;;;;;5024086;28;20088;-66
2022/05/21 11:59:00;;;;;;;3.35;1.58;;;21.50;99.90;;;;;;5035473;28;20033;-67
2022/05/21 12:01:52;;;;;;;3.38;1.70;;;21.70;99.90;;;;;;5009263;28;20057;-68
2022/05/21 12:04:25;;;;;;;2.78;1.38;;;21.00;99.90;;;;;;5030062;28;20132;-67
2022/05/21 12:06:52;;;;;;;2.95;1.23;;;20.80;99.90;;;;;;5030507;28;20056;-66
2022/05/21 12:09:26;;;;;;;3.85;1.33;;;21.00;99.90;;;;;;5030237;28;20080;-66
2022/05/21 12:12:24;;;;;;;5.68;1.40;;;21.50;99.90;;;;;;5025930;28;20448;-67
2022/05/21 12:14:56;;;;;;;5.78;2.05;;;21.40;99.90;;;;;;5022940;28;20510;-68
2022/05/21 12:17:57;;;;;;;5.00;1.52;;;21.10;99.90;;;;;;5028533;28;20076;-66
2022/05/21 12:20:50;;;;;;;4.35;1.80;;;20.90;99.90;;;;;;5017963;28;20041;-68
2022/05/21 12:23:33;;;;;;;5.10;1.60;;;21.30;99.90;;;;;;5026656;28;20041;-68
2022/05/21 12:26:12;;;;;;;3.85;1.70;;;21.40;99.90;;;;;;5027879;28;20042;-68
2022/05/21 12:28:46;;;;;;;3.70;1.30;;;21.80;99.90;;;;;;5027858;28;20395;-68
2022/05/21 12:31:37;;;;;;;3.13;1.50;;;22.50;99.90;;;;;;5031792;28;20049;-68
2022/05/21 12:34:20;;;;;;;3.50;1.55;;;22.70;99.90;;;;;;5040509;28;20045;-67
2022/05/21 12:37:03;;;;;;;3.45;1.58;;;22.20;99.90;;;;;;5032510;28;20595;-67
2022/05/21 12:40:01;;;;;;;3.63;1.65;;;22.40;99.90;;;;;;5030032;28;20585;-67
2022/05/21 12:42:32;;;;;;;7.78;1.60;;;22.40;99.90;;;;;;5032895;28;20037;-66
2022/05/21 12:44:59;;;;;;;2.20;1.30;;;23.20;99.90;;;;;;5039708;28;20465;-66
2022/05/21 12:47:33;;;;;;;3.35;1.60;;;22.60;99.90;;;;;;5038341;28;20362;-67
2022/05/21 12:50:17;;;;;;;2.83;1.23;;;22.80;99.90;;;;;;5041336;28;20048;-67
2022/05/21 12:52:54;;;;;;;4.78;1.58;;;23.10;99.90;;;;;;5036168;28;20041;-67
2022/05/21 12:55:26;;;;;;;3.53;1.50;;;22.80;99.90;;;;;;5037696;28;20057;-67
2022/05/21 12:58:08;;;;;;;7.30;1.50;;;22.90;99.90;;;;;;5041008;28;20481;-67
2022/05/21 13:00:37;;;;;;;4.75;1.45;;;22.80;99.90;;;;;;5038513;28;20492;-68
2022/05/21 13:03:09;;;;;;;3.92;1.48;;;23.40;99.90;;;;;;5033481;28;20464;-67
2022/05/21 13:05:48;;;;;;;2.83;1.35;;;23.20;99.90;;;;;;5036452;28;20067;-68
2022/05/21 13:08:18;;;;;;;4.28;1.25;;;23.30;99.90;;;;;;5031558;28;20053;-67
2022/05/21 13:11:06;;;;;;;3.83;1.40;;;23.70;99.90;;;;;;5033089;28;20037;-67
2022/05/21 13:13:38;;;;;;;2.47;1.33;;;23.80;99.90;;;;;;5031130;28;20563;-68
2022/05/21 13:16:15;;;;;;;4.53;1.20;;;23.60;99.90;;;;;;5031692;28;20528;-67
2022/05/21 13:19:10;;;;;;;4.13;1.10;;;24.00;99.90;;;;;;5030690;28;20539;-67
2022/05/21 13:21:50;;;;;;;5.70;1.50;;;23.60;99.90;;;;;;5025085;28;20068;-65
2022/05/21 13:24:33;;;;;;;4.15;1.42;;;23.80;99.90;;;;;;5033357;28;20037;-64
2022/05/21 13:27:10;;;;;;;5.20;1.50;;;24.50;99.90;;;;;;5023657;28;20408;-67
2022/05/21 13:29:39;;;;;;;3.95;1.75;;;24.10;99.90;;;;;;5030892;28;20152;-67
2022/05/21 13:32:27;;;;;;;4.68;1.55;;;24.40;99.90;;;;;;5029852;28;20487;-66
2022/05/21 13:35:19;;;;;;;2.33;1.10;;;24.10;99.90;;;;;;5029818;28;20124;-67
2022/05/21 13:37:47;;;;;;;3.38;1.38;;;24.50;99.90;;;;;;5038339;28;20565;-67
2022/05/21 13:40:21;;;;;;;3.70;1.30;;;23.80;99.90;;;;;;5033454;28;20508;-67
2022/05/21 13:42:51;;;;;;;4.03;1.30;;;24.00;99.90;;;;;;5029616;28;20047;-67
2022/05/21 13:45:31;;;;;;;4.50;1.38;;;24.40;99.90;;;;;;5032720;28;20532;-66
2022/05/21 13:48:12;;;;;;;5.05;1.73;;;24.80;99.90;;;;;;5032043;28;20079;-67
2022/05/21 13:50:42;;;;;;;5.45;1.50;;;24.60;99.90;;;;;;5036734;28;20049;-67
2022/05/21 13:53:13;;;;;;;5.35;1.40;;;24.30;99.90;;;;;;5031672;28;20049;-67
2022/05/21 13:56:04;;;;;;;5.03;1.30;;;23.60;99.90;;;;;;5029675;28;20058;-67
2022/05/21 13:58:38;;;;;;;3.72;1.30;;;24.40;99.90;;;;;;5030197;28;20041;-67